Time;durP1;ratioP1;P1;durP2;ratioP2;P2;SDS_P1;SDS_P2;PMS_P1;PMS_P2;Temp;Humidity;BMP_temperature;BMP_pressure;BME280_temperature;BME280_humidity;BME280_pressure;Samples;Min_cycle;Max_cycle;Signal;HPM_P1;HPM_P2
2021/03/03 00:01:17;;;;;;;28.10;17.80;;;;;;;10.75;47.15;102988.69;4914444;29;20503;-64
2021/03/03 00:03:44;;;;;;;28.70;17.80;;;;;;;10.71;47.02;102997.50;4914272;29;20052;-64
2021/03/03 00:06:10;;;;;;;30.15;17.63;;;;;;;10.66;47.04;102991.47;4914346;29;20503;-64
2021/03/03 00:08:36;;;;;;;28.30;17.63;;;;;;;10.61;46.71;102993.34;4914146;29;20056;-63
2021/03/03 00:11:03;;;;;;;32.28;18.67;;;;;;;10.56;46.78;102996.09;4914123;29;20062;-63
2021/03/03 00:13:30;;;;;;;29.83;19.35;;;;;;;10.52;46.87;103002.25;4914287;29;20059;-63
2021/03/03 00:15:56;;;;;;;26.98;17.52;;;;;;;10.50;47.03;102995.31;4914507;29;20054;-63
2021/03/03 00:18:22;;;;;;;30.85;18.88;;;;;;;10.48;46.80;102997.13;4913658;29;20059;-63
2021/03/03 00:20:48;;;;;;;32.85;18.25;;;;;;;10.45;47.02;102991.03;4914252;29;20055;-63
2021/03/03 00:23:14;;;;;;;31.70;19.13;;;;;;;10.46;47.28;102999.75;4913956;29;20048;-63
2021/03/03 00:25:40;;;;;;;29.77;18.90;;;;;;;10.44;47.13;102991.91;4914162;29;20056;-62
2021/03/03 00:28:07;;;;;;;32.67;19.77;;;;;;;10.43;47.21;102995.44;4913934;29;20084;-63
2021/03/03 00:30:33;;;;;;;32.97;20.00;;;;;;;10.40;47.42;102998.13;4913783;29;20044;-63
2021/03/03 00:32:59;;;;;;;34.47;21.83;;;;;;;10.36;47.18;102991.22;4913855;29;20082;-64
2021/03/03 00:35:25;;;;;;;34.03;21.55;;;;;;;10.34;47.20;102997.38;4913467;29;20052;-64
2021/03/03 00:37:52;;;;;;;33.50;21.70;;;;;;;10.32;47.33;102997.38;4905533;29;20051;-63
2021/03/03 00:40:18;;;;;;;38.67;20.85;;;;;;;10.30;47.46;102994.78;4903736;29;20048;-63
2021/03/03 00:42:44;;;;;;;31.17;19.40;;;;;;;10.29;47.30;102992.19;4907767;29;20056;-63
2021/03/03 00:45:11;;;;;;;28.65;18.48;;;;;;;10.25;47.39;102995.78;4906099;29;20055;-64
2021/03/03 00:47:37;;;;;;;32.90;18.17;;;;;;;10.18;47.24;102995.00;4907406;29;20048;-64
2021/03/03 00:50:04;;;;;;;29.60;18.98;;;;;;;10.15;47.34;102994.22;4907675;29;20051;-64
2021/03/03 00:52:30;;;;;;;29.23;18.95;;;;;;;10.12;47.73;102996.00;4906109;29;20048;-64
2021/03/03 00:54:56;;;;;;;30.35;19.40;;;;;;;10.10;48.03;102992.53;4907422;29;20051;-68
2021/03/03 00:57:22;;;;;;;35.45;19.27;;;;;;;10.07;48.14;102991.75;4907232;29;20487;-64
2021/03/03 00:59:49;;;;;;;27.30;18.27;;;;;;;10.05;48.35;103001.38;4905880;29;20047;-63
2021/03/03 01:02:17;;;;;;;29.02;19.15;;;;;;;10.05;48.79;102990.91;4907542;29;20072;-63
2021/03/03 01:04:44;;;;;;;30.95;19.30;;;;;;;10.05;49.06;102988.28;4907161;29;20139;-63
2021/03/03 01:07:11;;;;;;;28.70;18.42;;;;;;;10.05;49.22;102985.66;4905647;29;20133;-63
2021/03/03 01:09:37;;;;;;;29.98;18.60;;;;;;;10.04;49.52;102986.53;4907082;29;20099;-64
2021/03/03 01:12:03;;;;;;;31.50;19.38;;;;;;;10.01;49.37;102997.94;4906887;29;20056;-63
2021/03/03 01:14:29;;;;;;;29.15;18.17;;;;;;;9.98;49.43;102987.53;4905412;29;20045;-63
2021/03/03 01:16:55;;;;;;;28.88;17.40;;;;;;;9.95;49.15;102985.81;4907259;29;20513;-63
2021/03/03 01:19:22;;;;;;;30.45;17.85;;;;;;;9.92;49.34;102988.47;4906657;29;20048;-63
2021/03/03 01:21:48;;;;;;;30.42;18.83;;;;;;;9.90;49.39;102984.16;4905720;29;20070;-63
2021/03/03 01:24:15;;;;;;;27.25;17.15;;;;;;;9.88;49.33;102986.81;4907470;29;20400;-64
2021/03/03 01:26:41;;;;;;;26.35;17.17;;;;;;;9.88;49.49;102988.56;4906037;29;20052;-64
2021/03/03 01:29:08;;;;;;;31.27;18.10;;;;;;;9.86;49.84;102983.34;4915586;29;20052;-63
2021/03/03 01:31:34;;;;;;;29.08;17.55;;;;;;;9.86;49.63;102979.88;4916274;29;20048;-63
2021/03/03 01:34:01;;;;;;;30.90;18.23;;;;;;;9.84;49.93;102977.28;4915972;29;20052;-64
2021/03/03 01:36:28;;;;;;;28.08;17.48;;;;;;;9.83;49.65;102974.66;4916184;29;20055;-67
2021/03/03 01:38:54;;;;;;;27.17;17.77;;;;;;;9.82;49.76;102965.94;4916236;29;20051;-64
2021/03/03 01:41:20;;;;;;;27.17;18.17;;;;;;;9.82;49.71;102967.72;4916326;29;20103;-64
2021/03/03 01:43:47;;;;;;;29.13;18.20;;;;;;;9.80;49.89;102968.59;4916305;29;20131;-63
2021/03/03 01:46:13;;;;;;;28.65;17.92;;;;;;;9.76;49.72;102960.78;4916208;29;20052;-64
2021/03/03 01:48:41;;;;;;;27.45;16.98;;;;;;;9.72;49.53;102967.84;4916021;29;20083;-64
2021/03/03 01:51:08;;;;;;;27.02;17.10;;;;;;;9.67;49.64;102961.81;4916956;29;20471;-64
2021/03/03 01:53:34;;;;;;;26.83;17.27;;;;;;;9.63;49.60;102961.00;4922293;29;20491;-68
2021/03/03 01:56:00;;;;;;;29.77;18.58;;;;;;;9.63;49.60;102955.75;4922480;29;20452;-64
2021/03/03 01:58:27;;;;;;;27.13;17.60;;;;;;;9.63;49.64;102962.78;4922378;29;20048;-64
2021/03/03 02:01:05;;;;;;;26.50;18.20;;;;;;;9.64;49.78;102959.25;4922297;29;20107;-65
2021/03/03 02:03:32;;;;;;;26.98;17.67;;;;;;;9.62;50.09;102958.41;4922240;29;20070;-65
2021/03/03 02:06:07;;;;;;;30.90;18.02;;;;;;;9.61;50.13;102957.56;4922399;29;20050;-64
2021/03/03 02:08:39;;;;;;;27.02;18.15;;;;;;;9.57;49.93;102950.66;4922093;29;20052;-63
2021/03/03 02:11:44;;;;;;;30.55;17.95;;;;;;;9.53;49.74;102950.72;4921864;29;20066;-63
2021/03/03 02:14:19;;;;;;;25.38;18.38;;;;;;;9.49;49.80;102955.13;4922163;29;20056;-64
2021/03/03 02:16:47;;;;;;;31.20;18.08;;;;;;;9.43;49.40;102958.72;4922155;29;20055;-64
2021/03/03 02:19:19;;;;;;;31.48;19.52;;;;;;;9.39;49.54;102957.03;4922222;29;20079;-64
2021/03/03 02:21:58;;;;;;;30.92;20.55;;;;;;;9.35;50.13;102954.50;4922066;29;20048;-63
2021/03/03 02:24:25;;;;;;;31.95;20.08;;;;;;;9.35;50.57;102957.13;4922145;29;20123;-64
2021/03/03 02:26:53;;;;;;;31.80;19.35;;;;;;;9.34;50.96;102948.38;4922280;29;20068;-63
2021/03/03 02:29:27;;;;;;;30.73;19.30;;;;;;;9.33;50.85;102957.13;4918951;29;20425;-64
2021/03/03 02:31:54;;;;;;;33.72;19.38;;;;;;;9.34;50.95;102947.53;4922208;29;20044;-64
2021/03/03 02:34:25;;;;;;;29.63;18.77;;;;;;;9.32;51.02;102948.41;4922240;29;20131;-64
2021/03/03 02:36:52;;;;;;;31.45;18.60;;;;;;;9.31;51.28;102948.44;4922109;29;20056;-64
2021/03/03 02:39:22;;;;;;;30.77;18.98;;;;;;;9.30;50.94;102951.94;4922025;29;20055;-68
2021/03/03 02:41:49;;;;;;;34.80;19.92;;;;;;;9.27;51.21;102952.00;4921982;29;20044;-64
2021/03/03 02:44:15;;;;;;;32.22;19.38;;;;;;;9.24;51.49;102949.41;4922139;29;20055;-67
2021/03/03 02:46:43;;;;;;;30.20;17.73;;;;;;;9.21;51.66;102939.84;4921950;29;20061;-64
2021/03/03 02:49:10;;;;;;;31.35;18.48;;;;;;;9.17;51.31;102940.78;4921823;29;20076;-63
2021/03/03 02:51:36;;;;;;;28.70;17.67;;;;;;;9.12;51.20;102943.47;4921828;29;20059;-63
2021/03/03 02:54:03;;;;;;;29.95;17.70;;;;;;;9.09;51.13;102940.03;4921903;29;20066;-63
2021/03/03 02:56:29;;;;;;;27.05;18.42;;;;;;;9.05;50.98;102938.34;4921758;29;20044;-64
2021/03/03 02:59:01;;;;;;;34.30;19.23;;;;;;;9.01;51.20;102940.16;4921875;29;20063;-63
2021/03/03 03:01:27;;;;;;;25.58;17.65;;;;;;;8.97;51.08;102947.16;4921653;29;20052;-63
2021/03/03 03:04:02;;;;;;;28.55;18.08;;;;;;;8.95;51.10;102946.34;4919077;29;20052;-63
2021/03/03 03:06:35;;;;;;;30.95;19.23;;;;;;;8.95;51.24;102942.84;4918751;29;20056;-64
2021/03/03 03:09:11;;;;;;;38.15;21.63;;;;;;;8.95;51.31;102942.84;4918659;29;20052;-63
2021/03/03 03:11:51;;;;;;;39.00;22.63;;;;;;;8.94;51.58;102944.63;4918492;29;20115;-64
2021/03/03 03:14:21;;;;;;;37.88;22.10;;;;;;;8.94;51.57;102947.22;4918623;29;20436;-64
2021/03/03 03:16:49;;;;;;;37.28;20.42;;;;;;;8.93;51.59;102947.25;4918780;29;20387;-63
2021/03/03 03:19:20;;;;;;;38.25;20.00;;;;;;;8.90;51.65;102945.56;4918577;29;20540;-65
2021/03/03 03:21:48;;;;;;;33.90;19.15;;;;;;;8.89;51.62;102941.19;4918482;29;20103;-63
2021/03/03 03:24:19;;;;;;;27.23;18.35;;;;;;;8.88;51.42;102939.47;4918517;29;20048;-63
2021/03/03 03:26:49;;;;;;;39.28;19.23;;;;;;;8.85;51.14;102942.13;4918376;29;20063;-64
2021/03/03 03:29:16;;;;;;;29.95;18.23;;;;;;;8.81;51.28;102937.81;4918273;29;20413;-69
2021/03/03 03:31:44;;;;;;;31.02;19.00;;;;;;;8.79;51.07;102942.22;4918326;29;20058;-64
2021/03/03 03:34:14;;;;;;;29.77;19.33;;;;;;;8.72;51.29;102936.16;4918332;29;20619;-64
2021/03/03 03:36:41;;;;;;;29.25;17.90;;;;;;;8.71;51.14;102941.44;4918186;29;20066;-65
2021/03/03 03:39:09;;;;;;;31.02;18.80;;;;;;;8.71;51.14;102938.81;4918418;29;20044;-69
2021/03/03 03:41:36;;;;;;;29.50;19.38;;;;;;;8.68;51.36;102942.34;4918170;29;20462;-69
2021/03/03 03:44:06;;;;;;;31.60;18.33;;;;;;;8.67;51.31;102935.38;4918170;29;20068;-68
2021/03/03 03:46:32;;;;;;;28.48;17.98;;;;;;;8.69;51.22;102941.47;4918022;29;20422;-64
2021/03/03 03:49:00;;;;;;;27.73;18.40;;;;;;;8.68;51.29;102936.25;4917935;29;20052;-63
2021/03/03 03:51:27;;;;;;;30.52;19.42;;;;;;;8.69;51.65;102940.59;4917842;29;20052;-63
2021/03/03 03:53:53;;;;;;;28.55;17.92;;;;;;;8.68;51.54;102944.97;4918026;29;20048;-63
2021/03/03 03:56:19;;;;;;;30.45;19.40;;;;;;;8.67;51.75;102938.00;4917946;29;20156;-63
2021/03/03 03:58:45;;;;;;;25.63;17.65;;;;;;;8.65;51.60;102930.16;4917926;29;20048;-64
2021/03/03 04:01:12;;;;;;;30.13;18.35;;;;;;;8.66;51.83;102937.13;4917394;29;20056;-64
2021/03/03 04:03:38;;;;;;;31.33;19.13;;;;;;;8.66;51.69;102939.75;4917605;29;20056;-64
2021/03/03 04:06:05;;;;;;;26.85;18.15;;;;;;;8.65;51.93;102930.16;4917588;29;20103;-64
2021/03/03 04:08:31;;;;;;;31.88;17.60;;;;;;;8.63;52.03;102934.56;4917444;29;20059;-67
2021/03/03 04:10:57;;;;;;;29.75;18.90;;;;;;;8.59;51.71;102934.63;4917323;29;20060;-63
2021/03/03 04:13:24;;;;;;;28.23;17.30;;;;;;;8.56;51.72;102930.28;4917383;29;20463;-63
2021/03/03 04:15:50;;;;;;;32.58;19.00;;;;;;;8.56;51.71;102934.63;4917412;29;20045;-64
2021/03/03 04:18:16;;;;;;;31.80;18.75;;;;;;;8.53;51.71;102930.31;4917614;29;20082;-64
2021/03/03 04:20:43;;;;;;;29.65;18.73;;;;;;;8.53;52.02;102932.94;4917446;29;20758;-63
2021/03/03 04:23:11;;;;;;;29.80;18.60;;;;;;;8.50;51.82;102925.97;4917326;29;20052;-64
2021/03/03 04:25:37;;;;;;;29.08;17.63;;;;;;;8.49;52.06;102931.25;4917279;29;20048;-63
2021/03/03 04:28:04;;;;;;;30.92;17.65;;;;;;;8.50;51.80;102928.59;4917179;29;20052;-64
2021/03/03 04:30:31;;;;;;;30.50;18.25;;;;;;;8.49;51.80;102913.81;4917300;29;20103;-64
2021/03/03 04:33:08;;;;;;;30.98;18.90;;;;;;;8.50;51.75;102922.50;4917279;29;20070;-63
2021/03/03 04:35:35;;;;;;;28.23;18.15;;;;;;;8.50;51.82;102927.75;4917216;29;20052;-63
2021/03/03 04:38:01;;;;;;;38.42;19.30;;;;;;;8.47;52.15;102922.56;4917426;29;20055;-63
2021/03/03 04:40:27;;;;;;;38.28;19.70;;;;;;;8.44;51.56;102926.06;4917040;29;20066;-63
2021/03/03 04:42:53;;;;;;;28.60;17.33;;;;;;;8.42;51.83;102921.72;4917002;29;20049;-63
2021/03/03 04:45:19;;;;;;;44.38;20.20;;;;;;;8.40;51.67;102931.34;4916971;29;20494;-63
2021/03/03 04:47:45;;;;;;;47.55;20.63;;;;;;;8.35;51.54;102928.75;4916875;29;20103;-64
2021/03/03 04:50:12;;;;;;;47.33;20.67;;;;;;;8.30;51.44;102927.94;4916877;29;20550;-64
2021/03/03 04:52:38;;;;;;;33.95;18.65;;;;;;;8.25;51.32;102922.78;4917002;29;20534;-64
2021/03/03 04:55:05;;;;;;;36.05;19.10;;;;;;;8.20;51.43;102919.34;4916837;29;20048;-64
2021/03/03 04:57:32;;;;;;;41.85;20.17;;;;;;;8.13;51.07;102917.69;4916792;29;20052;-63
2021/03/03 04:59:58;;;;;;;51.65;19.58;;;;;;;8.07;51.42;102923.00;4916724;29;20048;-64
2021/03/03 05:02:25;;;;;;;57.30;19.85;;;;;;;8.04;51.35;102917.78;4916517;29;20044;-63
2021/03/03 05:04:51;;;;;;;50.50;19.33;;;;;;;8.02;51.14;102915.19;4916569;29;20044;-64
2021/03/03 05:07:17;;;;;;;59.67;20.33;;;;;;;8.00;51.01;102915.22;4916732;29;20075;-63
2021/03/03 05:09:44;;;;;;;55.40;20.08;;;;;;;7.98;51.07;102919.59;4916279;29;20139;-63
2021/03/03 05:12:10;;;;;;;66.50;21.20;;;;;;;7.98;51.25;102911.72;4916334;29;20521;-65
2021/03/03 05:14:36;;;;;;;61.33;20.95;;;;;;;7.99;51.31;102915.22;4916525;29;20091;-63
2021/03/03 05:17:02;;;;;;;61.78;20.50;;;;;;;7.99;51.46;102910.84;4916642;29;20052;-63
2021/03/03 05:19:29;;;;;;;59.58;18.85;;;;;;;7.99;51.41;102912.63;4916461;29;20048;-64
2021/03/03 05:21:55;;;;;;;54.17;20.98;;;;;;;7.97;51.48;102914.38;4916444;29;20058;-64
2021/03/03 05:24:22;;;;;;;47.15;20.05;;;;;;;7.96;51.52;102904.78;4916419;29;20070;-64
2021/03/03 05:26:48;;;;;;;49.53;21.10;;;;;;;7.96;52.05;102907.41;4915890;29;20495;-63
2021/03/03 05:29:14;;;;;;;38.15;18.77;;;;;;;7.96;51.80;102899.56;4916143;29;20048;-64
2021/03/03 05:31:40;;;;;;;48.63;19.55;;;;;;;7.95;52.21;102903.09;4916239;29;20059;-64
2021/03/03 05:34:07;;;;;;;39.55;19.52;;;;;;;7.92;51.99;102901.38;4916622;29;20051;-64
2021/03/03 05:36:33;;;;;;;37.17;18.48;;;;;;;7.90;51.69;102902.25;4916169;29;20054;-64
2021/03/03 05:38:59;;;;;;;40.67;18.63;;;;;;;7.85;51.34;102904.91;4899491;29;20056;-64
2021/03/03 05:41:26;;;;;;;39.92;18.17;;;;;;;7.80;51.48;102906.72;4916118;29;20051;-64
2021/03/03 05:43:53;;;;;;;42.08;20.35;;;;;;;7.77;51.57;102917.19;4916259;29;20131;-63
2021/03/03 05:46:20;;;;;;;40.20;19.02;;;;;;;7.75;51.57;102903.28;4916173;29;20052;-69
2021/03/03 05:48:57;;;;;;;43.88;19.00;;;;;;;7.74;51.57;102907.63;4915975;29;20052;-69
2021/03/03 05:51:25;;;;;;;49.60;20.58;;;;;;;7.73;51.66;102903.28;4905655;29;20074;-64
2021/03/03 05:53:52;;;;;;;44.83;19.80;;;;;;;7.73;51.59;102905.03;4897269;29;20138;-63
2021/03/03 05:56:22;;;;;;;48.70;20.25;;;;;;;7.71;51.39;102914.63;4897154;29;20055;-63
2021/03/03 05:58:49;;;;;;;48.30;21.00;;;;;;;7.67;51.42;102917.28;4897342;29;20052;-63
2021/03/03 06:01:17;;;;;;;50.58;21.05;;;;;;;7.67;51.58;102919.03;4902056;29;20460;-70
2021/03/03 06:03:44;;;;;;;45.60;20.50;;;;;;;7.69;51.68;102922.50;4906646;29;20499;-62
2021/03/03 06:06:12;;;;;;;34.88;19.27;;;;;;;7.70;51.90;102916.38;4915955;29;20131;-62
2021/03/03 06:08:38;;;;;;;37.58;18.90;;;;;;;7.72;52.07;102918.97;4915818;29;20410;-64
2021/03/03 06:11:05;;;;;;;31.27;18.65;;;;;;;7.72;52.15;102919.88;4915073;29;20108;-62
2021/03/03 06:13:32;;;;;;;37.58;19.23;;;;;;;7.74;52.39;102910.25;4913579;29;20138;-63
2021/03/03 06:16:05;;;;;;;45.40;18.83;;;;;;;7.74;52.33;102919.84;4914136;29;20415;-66
2021/03/03 06:18:33;;;;;;;43.90;18.52;;;;;;;7.74;52.07;102919.84;4914665;29;20094;-64
2021/03/03 06:21:00;;;;;;;38.88;17.98;;;;;;;7.72;51.88;102917.25;4915960;29;20056;-64
2021/03/03 06:23:27;;;;;;;38.35;19.30;;;;;;;7.72;51.81;102922.47;4915012;29;20048;-66
2021/03/03 06:25:56;;;;;;;40.67;19.02;;;;;;;7.72;51.69;102927.69;4915920;29;20048;-64
2021/03/03 06:28:42;;;;;;;52.28;20.40;;;;;;;7.73;51.77;102929.41;4915718;29;20059;-66
2021/03/03 06:31:28;;;;;;;51.03;18.88;;;;;;;7.74;51.87;102918.09;4915722;29;20140;-62
2021/03/03 06:34:09;;;;;;;45.60;19.45;;;;;;;7.76;52.23;102924.16;4915598;29;20048;-63
2021/03/03 06:36:37;;;;;;;40.13;19.15;;;;;;;7.79;52.50;102928.50;4915630;29;20056;-63
2021/03/03 06:39:20;;;;;;;37.00;18.85;;;;;;;7.81;52.75;102935.44;4917379;29;20045;-62
2021/03/03 06:41:47;;;;;;;33.35;18.35;;;;;;;7.83;52.97;102931.09;4919141;29;20052;-62
2021/03/03 06:44:13;;;;;;;43.55;19.90;;;;;;;7.85;53.18;102929.31;4919295;29;20092;-62
2021/03/03 06:46:39;;;;;;;42.75;19.23;;;;;;;7.87;53.39;102931.88;4919036;29;20048;-61
2021/03/03 06:49:20;;;;;;;35.75;19.45;;;;;;;7.90;53.45;102936.22;4919137;29;20104;-61
2021/03/03 06:51:47;;;;;;;36.97;19.65;;;;;;;7.92;53.67;102930.13;4919038;29;20051;-62
2021/03/03 06:54:19;;;;;;;43.80;16.55;;;;;;;7.98;53.80;102937.03;4919005;29;20052;-63
2021/03/03 06:56:47;;;;;;;37.95;19.75;;;;;;;8.41;60.22;102941.78;4918468;29;20056;-69
2021/03/03 06:59:16;;;;;;;35.40;19.67;;;;;;;8.49;56.90;102949.56;4912537;29;20395;-69
2021/03/03 07:01:45;;;;;;;32.97;18.48;;;;;;;8.46;55.59;102950.47;4910768;29;20494;-69
2021/03/03 07:04:23;;;;;;;32.88;18.13;;;;;;;8.46;55.02;102945.22;4908957;29;20095;-69
2021/03/03 07:06:50;;;;;;;39.90;23.95;;;;;;;8.49;54.84;102954.78;4909050;29;20045;-70
2021/03/03 07:09:17;;;;;;;34.90;19.00;;;;;;;8.50;54.60;102951.31;4908173;29;20060;-69
2021/03/03 07:11:43;;;;;;;28.80;18.50;;;;;;;8.52;54.36;102951.28;4909624;29;20056;-69
2021/03/03 07:14:22;;;;;;;32.03;18.77;;;;;;;8.56;54.58;102951.22;4909089;29;20048;-69
2021/03/03 07:17:06;;;;;;;33.88;18.45;;;;;;;8.56;54.93;102951.22;4908899;29;20431;-70
2021/03/03 07:19:38;;;;;;;31.63;18.83;;;;;;;8.64;55.13;102949.38;4909045;29;20422;-70
2021/03/03 07:22:07;;;;;;;30.83;18.60;;;;;;;8.70;55.11;102947.56;4907919;29;20510;-69
2021/03/03 07:24:34;;;;;;;34.90;19.05;;;;;;;8.84;55.10;102948.25;4908023;29;20084;-69
2021/03/03 07:27:03;;;;;;;32.55;19.67;;;;;;;8.98;55.09;102942.81;4909454;29;20133;-69
2021/03/03 07:29:30;;;;;;;40.20;19.67;;;;;;;9.17;55.04;102951.28;4915840;29;20057;-69
2021/03/03 07:32:04;;;;;;;33.40;20.05;;;;;;;9.35;54.78;102951.88;4936976;29;20055;-69
2021/03/03 07:34:30;;;;;;;32.20;19.08;;;;;;;9.49;54.11;102952.50;4937391;29;20434;-69
2021/03/03 07:37:02;;;;;;;33.10;19.77;;;;;;;9.64;53.71;102952.25;4937336;29;20056;-69
2021/03/03 07:39:40;;;;;;;37.22;19.02;;;;;;;9.77;53.66;102954.66;4937431;29;20111;-69
2021/03/03 07:42:20;;;;;;;36.40;18.92;;;;;;;9.87;53.51;102952.75;4936864;29;20052;-69
2021/03/03 07:44:57;;;;;;;38.53;19.63;;;;;;;9.97;53.04;102955.16;4937545;29;20107;-69
2021/03/03 07:47:31;;;;;;;30.63;19.77;;;;;;;10.08;53.10;102956.72;4920924;29;20510;-69
2021/03/03 07:50:08;;;;;;;29.17;17.83;;;;;;;10.19;52.88;102952.13;4936534;29;20055;-69
2021/03/03 07:52:54;;;;;;;31.75;18.40;;;;;;;10.29;52.45;102950.19;4936890;29;20056;-69
2021/03/03 07:55:33;;;;;;;31.38;19.25;;;;;;;10.31;52.37;102953.69;4937008;29;20114;-70
2021/03/03 07:58:08;;;;;;;29.48;19.77;;;;;;;10.38;52.69;102952.66;4936969;29;20075;-69
2021/03/03 08:00:40;;;;;;;31.15;20.48;;;;;;;10.48;53.14;102950.72;4936585;29;20099;-69
2021/03/03 08:03:09;;;;;;;43.08;21.83;;;;;;;10.57;53.10;102953.16;4936864;29;20079;-68
2021/03/03 08:05:51;;;;;;;34.15;20.20;;;;;;;10.66;52.99;102953.88;4936434;29;20077;-66
2021/03/03 08:08:25;;;;;;;29.83;20.75;;;;;;;10.78;52.93;102949.22;4936015;29;20052;-62
2021/03/03 08:11:12;;;;;;;35.75;20.00;;;;;;;10.91;52.60;102949.81;4922465;29;20052;-66
2021/03/03 08:13:39;;;;;;;;;;;;;;;11.01;52.40;102953.09;4899835;29;20085;-68
2021/03/03 08:16:09;;;;;;;26.90;17.75;;;;;;;11.13;52.01;102945.81;4898002;29;19923;-67
2021/03/03 08:18:57;;;;;;;27.92;18.30;;;;;;;11.25;51.91;102951.66;4913795;29;20277;-67
2021/03/03 08:21:30;;;;;;;40.83;19.50;;;;;;;11.28;51.66;102956.81;4897461;29;20052;-67
2021/03/03 08:24:05;;;;;;;28.30;18.65;;;;;;;11.33;51.65;102942.72;4897981;29;20558;-67
2021/03/03 08:26:37;;;;;;;30.15;19.85;;;;;;;11.40;51.54;102939.91;4906452;29;20100;-67
2021/03/03 08:29:24;;;;;;;31.17;19.55;;;;;;;11.59;51.11;102942.94;4914072;29;20048;-68
2021/03/03 08:32:13;;;;;;;28.33;19.33;;;;;;;11.74;50.65;102928.53;4913882;29;20052;-68
2021/03/03 08:34:54;;;;;;;27.10;20.02;;;;;;;11.97;50.56;102918.31;4913980;29;20494;-68
2021/03/03 08:37:30;;;;;;;31.00;20.23;;;;;;;12.15;49.97;102924.81;4913598;29;20048;-68
2021/03/03 08:40:02;;;;;;;29.58;19.80;;;;;;;12.32;49.76;102917.31;4897311;29;20082;-67
2021/03/03 08:42:35;;;;;;;28.80;20.08;;;;;;;12.48;49.57;102917.75;4913545;29;20082;-68
2021/03/03 08:45:06;;;;;;;28.02;20.05;;;;;;;12.62;49.28;102921.72;4913574;29;20062;-68
2021/03/03 08:47:52;;;;;;;35.75;19.92;;;;;;;12.77;48.96;102923.03;4913388;29;20522;-68
2021/03/03 08:50:38;;;;;;;;;;;;;;;12.88;48.61;102913.88;4913715;29;20135;-67
2021/03/03 08:53:21;;;;;;;31.48;19.55;;;;;;;13.04;48.13;102910.75;4913514;29;20018;-67
2021/03/03 08:55:49;;;;;;;29.92;18.58;;;;;;;13.18;47.95;102913.81;4893962;29;20108;-67
2021/03/03 08:58:36;;;;;;;27.35;18.38;;;;;;;13.36;47.50;102911.47;4894587;29;20053;-67
2021/03/03 09:01:06;;;;;;;27.33;18.88;;;;;;;13.55;47.24;102914.38;4893640;29;20127;-68
2021/03/03 09:03:34;;;;;;;29.42;18.73;;;;;;;13.73;46.97;102912.88;4894539;29;20105;-68
2021/03/03 09:06:04;;;;;;;27.77;19.58;;;;;;;13.91;46.65;102908.72;4895446;29;20134;-67
2021/03/03 09:08:37;;;;;;;27.23;18.67;;;;;;;14.09;46.12;102911.59;4912824;29;20056;-68
2021/03/03 09:11:15;;;;;;;25.08;17.80;;;;;;;14.21;45.58;102908.53;4906969;29;20139;-67
2021/03/03 09:13:41;;;;;;;24.40;17.67;;;;;;;14.33;45.23;102907.19;4912838;29;20056;-68
2021/03/03 09:16:13;;;;;;;27.05;17.38;;;;;;;14.43;44.84;102907.72;4913018;29;20743;-67
2021/03/03 09:18:40;;;;;;;28.92;18.50;;;;;;;14.45;44.40;102909.38;4912757;29;20044;-68
2021/03/03 09:21:11;;;;;;;25.63;16.95;;;;;;;14.49;43.81;102908.31;4912691;29;20078;-68
2021/03/03 09:23:38;;;;;;;24.52;16.55;;;;;;;14.54;43.40;102908.16;4912840;29;20486;-67
2021/03/03 09:26:20;;;;;;;24.70;17.02;;;;;;;14.67;42.82;102900.66;4911594;29;20096;-67
2021/03/03 09:28:47;;;;;;;21.75;15.88;;;;;;;14.85;42.19;102904.31;4914194;29;20079;-69
2021/03/03 09:31:35;;;;;;;25.42;16.70;;;;;;;14.99;41.72;102896.69;4922984;29;20054;-66
2021/03/03 09:34:03;;;;;;;23.98;17.02;;;;;;;15.09;41.44;102897.19;4910841;29;20052;-67
2021/03/03 09:36:30;;;;;;;29.33;17.65;;;;;;;15.18;41.13;102893.31;4911360;29;20052;-66
2021/03/03 09:38:58;;;;;;;28.20;18.50;;;;;;;15.26;41.30;102896.50;4912116;29;20071;-66
2021/03/03 09:41:25;;;;;;;27.55;17.85;;;;;;;15.23;41.35;102886.03;4912024;29;20052;-66
2021/03/03 09:44:06;;;;;;;29.75;17.48;;;;;;;15.19;41.23;102885.28;4912221;29;20509;-67
2021/03/03 09:47:00;;;;;;;24.75;17.42;;;;;;;15.14;41.35;102889.91;4911803;29;20044;-67
2021/03/03 09:49:31;;;;;;;32.13;18.23;;;;;;;15.12;41.34;102886.50;4911984;29;20414;-66
2021/03/03 09:51:59;;;;;;;31.40;18.92;;;;;;;14.84;41.73;102884.09;4912252;29;20066;-66
2021/03/03 09:54:31;;;;;;;29.65;18.42;;;;;;;14.67;42.20;102887.44;4912243;29;20044;-66
2021/03/03 09:57:02;;;;;;;31.73;19.40;;;;;;;14.51;42.56;102882.72;4912016;29;20075;-66
2021/03/03 09:59:30;;;;;;;28.65;18.98;;;;;;;14.47;42.73;102878.44;4912383;29;20048;-66
2021/03/03 10:01:58;;;;;;;29.05;18.42;;;;;;;14.47;42.71;102881.09;4912251;29;20099;-65
2021/03/03 10:04:25;;;;;;;30.98;18.63;;;;;;;14.62;43.30;102881.44;4910535;29;20044;-66
2021/03/03 10:06:54;;;;;;;32.92;18.73;;;;;;;14.71;43.07;102882.88;4911792;29;20486;-67
2021/03/03 10:09:20;;;;;;;29.50;19.20;;;;;;;14.77;42.61;102878.22;4911797;29;20064;-67
2021/03/03 10:11:47;;;;;;;33.08;20.23;;;;;;;14.79;42.26;102879.03;4911725;29;20060;-67
2021/03/03 10:14:14;;;;;;;28.85;18.00;;;;;;;14.79;42.02;102879.03;4914840;29;20486;-66
2021/03/03 10:16:41;;;;;;;27.13;18.38;;;;;;;14.77;41.86;102874.72;4922990;29;20047;-65
2021/03/03 10:19:12;;;;;;;28.42;19.05;;;;;;;14.78;41.55;102874.66;4915286;29;20490;-66
2021/03/03 10:21:47;;;;;;;30.25;19.50;;;;;;;14.82;41.23;102870.09;4898888;29;20062;-66
2021/03/03 10:24:20;;;;;;;29.15;19.10;;;;;;;14.89;41.19;102866.28;4915838;29;20040;-67
2021/03/03 10:26:51;;;;;;;29.02;19.30;;;;;;;15.02;41.00;102872.78;4915477;29;20048;-66
2021/03/03 10:29:39;;;;;;;31.65;20.48;;;;;;;15.16;40.93;102872.22;4910685;29;20056;-67
2021/03/03 10:32:13;;;;;;;32.20;19.60;;;;;;;15.23;40.86;102864.88;4915815;29;20048;-67
2021/03/03 10:34:41;;;;;;;27.27;18.40;;;;;;;15.28;40.74;102857.59;4915236;29;20048;-67
2021/03/03 10:37:07;;;;;;;29.13;18.17;;;;;;;15.36;40.56;102859.91;4915429;29;20064;-67
2021/03/03 10:39:34;;;;;;;32.17;18.67;;;;;;;15.43;40.33;102861.38;4915216;29;20052;-67
2021/03/03 10:42:05;;;;;;;28.88;18.25;;;;;;;15.52;40.10;102863.63;4915354;29;20671;-67
2021/03/03 10:44:41;;;;;;;30.00;19.60;;;;;;;15.63;39.71;102859.63;4915198;29;20482;-67
2021/03/03 10:47:09;;;;;;;28.65;18.55;;;;;;;15.69;39.69;102856.72;4914737;29;20060;-64
2021/03/03 10:49:38;;;;;;;31.52;19.17;;;;;;;15.89;39.39;102847.91;4914564;29;20056;-69
2021/03/03 10:52:19;;;;;;;31.17;20.05;;;;;;;16.04;39.12;102843.72;4915174;29;20044;-67
2021/03/03 10:54:45;;;;;;;29.67;19.10;;;;;;;16.28;38.72;102847.00;4914998;29;20069;-68
2021/03/03 10:57:11;;;;;;;32.65;20.33;;;;;;;16.67;38.15;102834.56;4912778;29;20503;-66
2021/03/03 10:59:38;;;;;;;34.40;19.33;;;;;;;16.81;37.60;102837.38;4909718;29;20047;-68
2021/03/03 11:02:06;;;;;;;27.58;19.25;;;;;;;16.85;37.55;102838.09;4915546;29;20074;-68
2021/03/03 11:04:44;;;;;;;33.65;21.02;;;;;;;17.01;37.21;102832.06;4915192;29;20052;-68
2021/03/03 11:07:12;;;;;;;34.08;19.85;;;;;;;17.18;36.95;102825.88;4915112;29;20052;-69
2021/03/03 11:09:39;;;;;;;33.75;19.55;;;;;;;17.23;36.66;102830.03;4914920;29;20479;-68
2021/03/03 11:12:08;;;;;;;32.08;19.25;;;;;;;17.30;36.66;102815.47;4906506;29;20048;-68
2021/03/03 11:14:35;;;;;;;32.08;19.67;;;;;;;17.47;36.50;102816.41;4909675;29;20075;-68
2021/03/03 11:17:03;;;;;;;33.15;20.30;;;;;;;17.62;36.35;102810.28;4913605;29;20063;-68
2021/03/03 11:19:32;;;;;;;31.83;20.73;;;;;;;17.85;35.98;102808.19;4915244;29;20056;-68
2021/03/03 11:22:05;;;;;;;31.17;20.58;;;;;;;18.00;35.65;102806.50;4915010;29;20055;-68
2021/03/03 11:24:33;;;;;;;35.05;20.50;;;;;;;18.07;35.56;102796.41;4910938;29;20056;-69
2021/03/03 11:27:01;;;;;;;34.35;20.27;;;;;;;18.07;35.71;102802.56;4904061;29;20434;-68